Time;durP1;ratioP1;P1;durP2;ratioP2;P2;SDS_P1;SDS_P2;PMS_P1;PMS_P2;Temp;Humidity;BMP_temperature;BMP_pressure;BME280_temperature;BME280_humidity;BME280_pressure;Samples;Min_cycle;Max_cycle;Signal;HPM_P1;HPM_P2
2023/06/09 00:02:56;;;;;;;13.47;9.30;;;;;;;14.68;100.00;99494.53;12221027;19;20007;-83
2023/06/09 00:06:58;;;;;;;13.07;8.40;;;;;;;14.68;100.00;99486.22;12222454;19;20006;-82
2023/06/09 00:11:00;;;;;;;13.63;9.20;;;;;;;14.71;100.00;99491.19;12197733;19;20018;-83
2023/06/09 00:15:02;;;;;;;13.95;8.55;;;;;;;14.77;100.00;99487.28;12215619;19;20007;-82
2023/06/09 00:19:09;;;;;;;12.05;8.02;;;;;;;14.84;100.00;99484.19;12220525;19;20383;-83
2023/06/09 00:23:13;;;;;;;12.38;7.93;;;;;;;14.87;100.00;99483.59;12194736;19;20439;-84
2023/06/09 00:27:15;;;;;;;11.98;7.30;;;;;;;14.96;100.00;99481.91;12210668;19;20143;-84
2023/06/09 00:31:16;;;;;;;10.55;7.50;;;;;;;14.97;100.00;99482.72;12214446;19;20021;-84
2023/06/09 00:35:18;;;;;;;14.00;8.38;;;;;;;14.99;100.00;99486.03;12191450;19;20471;-84
2023/06/09 00:39:20;;;;;;;11.88;8.07;;;;;;;14.97;100.00;99483.56;12214395;19;20006;-83
2023/06/09 00:43:23;;;;;;;10.60;7.53;;;;;;;14.94;100.00;99473.03;12222045;19;20007;-82
2023/06/09 00:47:26;;;;;;;13.05;8.48;;;;;;;14.94;100.00;99481.34;12229767;19;20022;-83
2023/06/09 00:51:28;;;;;;;10.43;7.50;;;;;;;14.96;100.00;99481.06;12233287;19;20051;-85
2023/06/09 00:55:32;;;;;;;11.00;7.28;;;;;;;14.99;100.00;99480.47;12222882;19;20416;-84
2023/06/09 00:59:35;;;;;;;10.27;7.90;;;;;;;15.02;100.00;99491.88;12200592;19;20014;-85
2023/06/09 01:03:38;;;;;;;12.00;8.25;;;;;;;15.03;100.00;99487.13;12220368;19;20015;-83
2023/06/09 01:07:50;;;;;;;12.55;8.73;;;;;;;15.02;100.00;99485.47;12219021;19;20014;-82
2023/06/09 01:11:58;;;;;;;10.23;8.45;;;;;;;15.09;100.00;99485.16;12198005;19;20014;-83
2023/06/09 01:16:10;;;;;;;12.82;8.13;;;;;;;15.02;100.00;99496.56;12216044;19;20011;-82
2023/06/09 01:20:15;;;;;;;12.38;8.82;;;;;;;14.89;100.00;99486.94;12195953;19;20084;-83
2023/06/09 01:24:37;;;;;;;13.02;9.75;;;;;;;14.81;100.00;99485.59;12216334;19;20799;-84
2023/06/09 01:28:40;;;;;;;12.13;8.95;;;;;;;14.74;100.00;99473.97;12216353;19;20006;-83
2023/06/09 01:32:45;;;;;;;15.18;9.90;;;;;;;14.75;100.00;99475.66;12194850;19;20006;-82
2023/06/09 01:36:51;;;;;;;12.27;9.20;;;;;;;14.74;100.00;99471.19;12215693;19;20120;-82
2023/06/09 01:40:53;;;;;;;11.93;8.95;;;;;;;14.75;100.00;99474.81;12210928;19;20014;-82
2023/06/09 01:44:55;;;;;;;15.30;9.50;;;;;;;14.73;100.00;99479.81;12190614;19;20030;-84
2023/06/09 01:49:21;;;;;;;13.10;9.55;;;;;;;14.67;100.00;99479.00;12211619;19;20002;-82
2023/06/09 01:53:28;;;;;;;16.27;10.82;;;;;;;14.56;100.00;99475.44;12191541;19;20018;-82
2023/06/09 01:57:40;;;;;;;15.63;11.38;;;;;;;14.45;100.00;99482.13;12214088;19;20006;-82
2023/06/09 02:01:44;;;;;;;15.27;11.05;;;;;;;14.33;100.00;99478.84;12211523;19;20011;-82
2023/06/09 02:05:48;;;;;;;18.35;12.02;;;;;;;14.23;100.00;99478.88;12188267;19;20014;-84
2023/06/09 02:09:51;;;;;;;18.70;11.30;;;;;;;14.16;100.00;99489.41;12212233;19;20007;-84
2023/06/09 02:13:54;;;;;;;17.20;11.30;;;;;;;14.08;100.00;99480.59;12211377;19;20006;-83
2023/06/09 02:17:56;;;;;;;19.25;11.70;;;;;;;13.98;100.00;99482.53;12190954;19;20630;-83
2023/06/09 02:21:58;;;;;;;20.20;12.48;;;;;;;13.87;100.00;99487.28;12210004;19;20483;-82
2023/06/09 02:26:00;;;;;;;21.08;13.52;;;;;;;13.80;100.00;99478.41;12186583;19;20002;-84
2023/06/09 02:30:02;;;;;;;17.30;13.00;;;;;;;13.76;100.00;99474.56;12212517;19;20023;-84
2023/06/09 02:34:04;;;;;;;19.15;13.07;;;;;;;13.73;100.00;99472.34;12201200;19;20045;-83
2023/06/09 02:38:06;;;;;;;21.02;13.32;;;;;;;13.67;100.00;99469.56;12189488;19;20014;-83
2023/06/09 02:42:08;;;;;;;20.23;12.23;;;;;;;13.63;100.00;99474.03;12209753;19;20039;-82
2023/06/09 02:46:12;;;;;;;20.27;13.23;;;;;;;13.56;100.00;99467.09;12209739;19;20007;-83
2023/06/09 02:50:14;;;;;;;21.27;13.65;;;;;;;13.51;100.00;99476.25;12200184;19;20763;-84
2023/06/09 02:54:16;;;;;;;20.27;12.50;;;;;;;13.44;100.00;99468.22;12225209;19;20034;-83
2023/06/09 02:58:20;;;;;;;19.10;12.65;;;;;;;13.40;100.00;99471.81;12225416;19;20010;-83
2023/06/09 03:02:28;;;;;;;20.50;13.00;;;;;;;13.36;100.00;99471.53;12202793;19;20007;-85
2023/06/09 03:06:32;;;;;;;22.00;12.75;;;;;;;13.34;100.00;99464.63;12220884;19;20124;-81
2023/06/09 03:10:36;;;;;;;18.80;13.35;;;;;;;13.36;100.00;99476.25;12224769;19;20090;-83
2023/06/09 03:14:39;;;;;;;19.40;13.63;;;;;;;13.40;100.00;99480.94;12203780;19;20063;-84
2023/06/09 03:18:40;;;;;;;;;;;;;;;13.44;100.00;99486.75;12221422;19;20069;-82
2023/06/09 03:22:42;;;;;;;17.70;12.90;;;;;;;13.45;100.00;99488.44;12221776;19;20276;-84
2023/06/09 03:26:45;;;;;;;22.10;14.38;;;;;;;13.48;100.00;99492.59;12200785;19;20014;-84
2023/06/09 03:30:47;;;;;;;22.13;13.43;;;;;;;13.50;100.00;99498.66;12219864;19;20038;-84
2023/06/09 03:34:49;;;;;;;22.27;14.47;;;;;;;13.53;100.00;99498.94;12216696;19;20015;-84
2023/06/09 03:38:51;;;;;;;20.08;13.77;;;;;;;13.54;100.00;99502.56;12197195;19;20350;-80
2023/06/09 03:42:53;;;;;;;22.52;14.75;;;;;;;13.54;100.00;99489.53;12216641;19;20424;-85
2023/06/09 03:46:55;;;;;;;19.92;13.40;;;;;;;13.57;100.00;99494.50;12203138;19;20007;-84
2023/06/09 03:50:57;;;;;;;24.65;14.65;;;;;;;13.58;100.00;99489.81;12218752;19;20013;-84
2023/06/09 03:54:59;;;;;;;18.17;13.70;;;;;;;13.62;100.00;99496.44;12217860;19;20006;-82
2023/06/09 03:59:03;;;;;;;22.88;13.45;;;;;;;13.65;100.00;99502.28;12194282;19;20015;-84
2023/06/09 04:03:07;;;;;;;19.70;13.83;;;;;;;13.71;100.00;99499.47;12216882;19;20034;-83
2023/06/09 04:07:11;;;;;;;17.25;12.82;;;;;;;13.77;100.00;99509.44;12219467;19;20385;-81
2023/06/09 04:11:13;;;;;;;18.52;13.65;;;;;;;13.83;100.00;99509.19;12196200;19;20010;-83
2023/06/09 04:15:16;;;;;;;18.20;12.38;;;;;;;13.86;100.00;99507.75;12213106;19;20030;-81
2023/06/09 04:19:20;;;;;;;18.05;12.93;;;;;;;13.86;100.00;99508.63;12215424;19;20002;-82
2023/06/09 04:23:27;;;;;;;16.33;12.20;;;;;;;13.93;100.00;99508.31;12192474;19;20014;-83
2023/06/09 04:27:30;;;;;;;18.67;12.07;;;;;;;14.02;100.00;99509.41;12215558;19;20440;-83
2023/06/09 04:31:33;;;;;;;19.60;12.75;;;;;;;14.05;100.00;99510.81;12215468;19;20007;-82
2023/06/09 04:35:40;;;;;;;18.65;13.00;;;;;;;14.12;100.00;99503.00;12189663;19;20018;-85
2023/06/09 04:39:45;;;;;;;15.48;10.98;;;;;;;14.14;100.00;99498.84;12211532;19;20502;-84
2023/06/09 04:43:53;;;;;;;16.15;12.10;;;;;;;14.24;100.00;99498.00;12212555;19;20011;-82
2023/06/09 04:47:57;;;;;;;15.05;11.48;;;;;;;14.29;100.00;99500.75;12190313;19;20002;-82
2023/06/09 04:51:59;;;;;;;17.50;11.93;;;;;;;14.38;100.00;99503.78;12211571;19;20047;-81
2023/06/09 04:56:06;;;;;;;15.88;10.90;;;;;;;14.49;100.00;99504.59;12216270;19;20037;-80
2023/06/09 05:00:16;;;;;;;14.82;10.23;;;;;;;14.65;100.00;99513.69;12239951;19;20015;-82
2023/06/09 05:04:20;;;;;;;12.57;10.15;;;;;;;14.79;100.00;99512.78;12214678;19;20025;-82
2023/06/09 05:08:22;;;;;;;13.68;10.25;;;;;;;14.93;100.00;99513.00;12194853;19;20054;-81
2023/06/09 05:12:25;;;;;;;14.07;10.60;;;;;;;15.03;100.00;99521.25;12213233;19;20015;-83
2023/06/09 05:16:28;;;;;;;12.40;9.20;;;;;;;15.13;100.00;99519.53;12211428;19;20010;-83
2023/06/09 05:20:31;;;;;;;13.85;9.15;;;;;;;15.27;100.00;99515.81;12191690;19;20014;-82
2023/06/09 05:24:33;;;;;;;12.77;10.00;;;;;;;15.43;100.00;99518.50;12212506;19;20471;-83
2023/06/09 05:28:36;;;;;;;;;;;;;;;15.53;100.00;99517.56;12213635;19;19999;-83
2023/06/09 05:32:38;;;;;;;11.25;8.27;;;;;;;15.69;100.00;99517.19;12191362;19;20431;-81
2023/06/09 05:36:41;;;;;;;12.68;9.88;;;;;;;15.82;100.00;99518.47;12210843;19;20006;-82
2023/06/09 05:40:43;;;;;;;12.33;8.63;;;;;;;15.91;100.00;99524.22;12222473;19;20030;-82
2023/06/09 05:44:45;;;;;;;12.13;8.70;;;;;;;16.08;100.00;99521.00;12188742;19;20328;-83
2023/06/09 05:48:47;;;;;;;10.70;8.48;;;;;;;16.28;100.00;99523.59;12213272;19;20025;-83
2023/06/09 05:52:49;;;;;;;12.68;8.73;;;;;;;16.49;100.00;99523.34;12209206;19;20006;-82
2023/06/09 05:56:53;;;;;;;11.80;9.00;;;;;;;16.73;100.00;99528.91;12191169;19;20031;-81
2023/06/09 06:00:58;;;;;;;11.80;8.82;;;;;;;17.13;100.00;99527.53;12213370;19;20006;-83
2023/06/09 06:05:03;;;;;;;11.32;8.50;;;;;;;17.63;100.00;99525.13;12187829;19;20027;-83
2023/06/09 06:09:04;;;;;;;16.95;8.05;;;;;;;18.10;100.00;99531.59;12211342;19;20011;-81
2023/06/09 06:13:09;;;;;;;10.48;8.07;;;;;;;18.54;100.00;99538.56;12212242;19;20010;-83
2023/06/09 06:17:11;;;;;;;10.27;8.20;;;;;;;18.81;100.00;99539.75;12192902;19;20017;-83
2023/06/09 06:21:13;;;;;;;11.48;8.13;;;;;;;18.89;100.00;99541.81;12212233;19;20010;-81
2023/06/09 06:25:17;;;;;;;9.15;7.68;;;;;;;18.94;100.00;99541.69;12233862;19;20002;-80
2023/06/09 06:29:20;;;;;;;10.38;8.18;;;;;;;19.09;100.00;99544.13;12212833;19;20026;-82
2023/06/09 06:33:23;;;;;;;9.13;8.10;;;;;;;19.20;100.00;99544.75;12234851;19;20031;-81
2023/06/09 06:37:25;;;;;;;8.57;7.60;;;;;;;19.29;100.00;99550.41;12236219;19;20022;-81
2023/06/09 06:41:27;;;;;;;10.13;7.60;;;;;;;19.56;100.00;99536.34;12213905;19;20011;-83
2023/06/09 06:45:30;;;;;;;12.18;7.68;;;;;;;19.77;100.00;99549.88;12233389;19;20064;-80
2023/06/09 06:49:32;;;;;;;8.45;6.70;;;;;;;19.89;100.00;99540.91;12229494;19;20038;-83
2023/06/09 06:53:38;;;;;;;10.40;7.70;;;;;;;20.02;100.00;99552.03;12210908;19;20018;-82
2023/06/09 06:57:40;;;;;;;9.60;7.30;;;;;;;20.16;100.00;99548.31;12225533;19;20058;-82
2023/06/09 07:01:42;;;;;;;;;;;;;;;20.33;100.00;99565.19;12210839;19;20014;-83
2023/06/09 07:05:44;;;;;;;9.45;8.20;;;;;;;20.52;100.00;99561.34;12202995;19;19918;-82
2023/06/09 07:09:46;;;;;;;13.18;7.20;;;;;;;20.60;100.00;99574.59;12237325;19;20491;-81
2023/06/09 07:13:51;;;;;;;9.65;7.00;;;;;;;20.63;98.60;99559.94;12259063;19;20010;-83
2023/06/09 07:17:53;;;;;;;12.68;7.88;;;;;;;20.77;99.38;99563.47;12248044;19;20010;-83
2023/06/09 07:21:55;;;;;;;9.10;7.65;;;;;;;20.78;99.37;99565.09;12245511;19;20018;-84
2023/06/09 07:25:56;;;;;;;11.90;7.77;;;;;;;20.91;98.60;99575.38;12261926;19;20010;-85
2023/06/09 07:29:58;;;;;;;9.20;7.57;;;;;;;21.03;99.54;99566.34;12269544;19;20010;-83
2023/06/09 07:34:00;;;;;;;8.70;6.70;;;;;;;21.17;95.48;99558.63;12258921;19;20009;-84
2023/06/09 07:38:02;;;;;;;9.73;7.10;;;;;;;21.39;95.37;99556.88;12252444;19;20010;-81
2023/06/09 07:42:05;;;;;;;9.63;7.22;;;;;;;21.51;94.21;99559.88;12253446;19;20003;-83
2023/06/09 07:46:07;;;;;;;11.30;7.05;;;;;;;21.60;90.07;99568.28;12250326;19;20114;-84
2023/06/09 07:50:09;;;;;;;10.00;7.27;;;;;;;21.82;89.71;99570.09;12223908;19;20084;-84
2023/06/09 07:54:11;;;;;;;8.57;6.68;;;;;;;21.99;88.82;99570.06;12244051;19;20299;-83
2023/06/09 07:58:27;;;;;;;7.13;6.30;;;;;;;22.12;86.36;99571.03;12252676;19;20042;-83
2023/06/09 08:02:30;;;;;;;10.57;6.22;;;;;;;22.37;85.62;99571.34;12252326;19;20007;-84
2023/06/09 08:06:35;;;;;;;7.38;5.93;;;;;;;22.62;82.49;99578.03;12244181;19;20010;-81
2023/06/09 08:10:37;;;;;;;8.50;6.30;;;;;;;22.90;82.71;99582.06;12248147;19;20011;-85
2023/06/09 08:14:39;;;;;;;6.68;5.57;;;;;;;23.07;78.05;99572.72;12255527;19;20002;-82
2023/06/09 08:18:41;;;;;;;6.70;5.53;;;;;;;23.27;75.43;99567.50;12255259;19;20003;-85
2023/06/09 08:22:43;;;;;;;7.55;5.90;;;;;;;23.45;74.71;99577.47;12255790;19;20018;-81
2023/06/09 08:26:48;;;;;;;7.88;5.63;;;;;;;23.67;75.13;99571.47;12250994;19;20070;-80
2023/06/09 08:30:51;;;;;;;7.15;5.50;;;;;;;23.74;65.96;99573.78;12249679;19;20031;-80
2023/06/09 08:34:53;;;;;;;7.90;5.23;;;;;;;23.94;67.39;99566.47;12248106;19;20011;-80
2023/06/09 08:38:55;;;;;;;8.30;5.80;;;;;;;24.14;64.90;99562.00;12271488;19;20723;-81
2023/06/09 08:42:59;;;;;;;9.20;5.75;;;;;;;24.29;63.73;99568.97;12266961;19;20011;-85
2023/06/09 08:47:06;;;;;;;7.85;5.72;;;;;;;24.33;64.44;99572.72;12245261;19;20090;-83
2023/06/09 08:51:08;;;;;;;7.00;5.43;;;;;;;24.47;64.72;99558.34;12246471;19;20010;-83
2023/06/09 08:55:13;;;;;;;10.00;5.45;;;;;;;24.70;63.70;99561.56;12251440;19;20011;-83
2023/06/09 08:59:15;;;;;;;8.13;5.20;;;;;;;24.93;62.99;99547.84;12253627;19;20670;-85
2023/06/09 09:03:18;;;;;;;6.20;5.03;;;;;;;24.99;60.22;99552.88;12252349;19;20007;-81
2023/06/09 09:07:20;;;;;;;6.20;5.07;;;;;;;25.17;59.76;99547.84;12249225;19;20007;-83
2023/06/09 09:11:23;;;;;;;8.07;5.25;;;;;;;25.34;61.44;99548.75;12248196;19;20029;-84
2023/06/09 09:15:27;;;;;;;6.93;5.07;;;;;;;25.56;57.28;99541.78;12244197;19;20006;-84
2023/06/09 09:19:30;;;;;;;8.23;5.40;;;;;;;25.77;56.10;99538.78;12250176;19;20134;-84
2023/06/09 09:23:33;;;;;;;6.43;5.15;;;;;;;25.88;56.32;99532.28;12244479;19;20006;-87
2023/06/09 09:27:35;;;;;;;6.45;4.97;;;;;;;26.01;54.95;99529.41;12245094;19;20037;-83
2023/06/09 09:31:41;;;;;;;6.90;5.40;;;;;;;26.13;55.54;99540.63;12250736;19;20381;-83
2023/06/09 09:35:46;;;;;;;7.05;5.70;;;;;;;26.37;54.35;99536.84;12245564;19;20011;-83
2023/06/09 09:39:52;;;;;;;7.00;4.95;;;;;;;26.54;52.93;99530.88;12240835;19;20368;-83
2023/06/09 09:43:57;;;;;;;5.20;4.20;;;;;;;26.78;50.79;99532.72;12238219;19;20021;-86
2023/06/09 09:48:08;;;;;;;5.68;4.53;;;;;;;26.88;51.37;99524.84;12242670;19;19999;-82
2023/06/09 09:52:12;;;;;;;5.72;4.53;;;;;;;26.99;51.09;99526.75;12248816;19;20107;-85
2023/06/09 09:56:14;;;;;;;6.03;4.25;;;;;;;27.20;48.31;99522.81;12238540;19;20014;-86
2023/06/09 10:00:17;;;;;;;7.22;5.45;;;;;;;27.24;47.78;99518.88;12242536;19;20009;-84
2023/06/09 10:04:23;;;;;;;5.82;4.57;;;;;;;27.43;47.27;99515.28;12240925;19;20011;-85
2023/06/09 10:08:29;;;;;;;7.05;4.50;;;;;;;27.68;47.69;99506.50;12244891;19;20018;-85
2023/06/09 10:12:31;;;;;;;5.90;4.55;;;;;;;27.87;46.11;99500.88;12254516;19;20418;-87
2023/06/09 10:16:33;;;;;;;;;;;;;;;27.95;46.43;99498.97;12255763;19;20018;-84
2023/06/09 10:20:35;;;;;;;5.30;4.10;;;;;;;28.03;44.04;99497.94;12258456;19;19915;-86
2023/06/09 10:24:39;;;;;;;5.63;4.47;;;;;;;28.12;43.27;99501.34;12248913;19;20013;-87
2023/06/09 10:28:42;;;;;;;6.63;3.92;;;;;;;28.10;42.98;99483.91;12252399;19;20011;-85
2023/06/09 10:32:52;;;;;;;7.25;3.75;;;;;;;28.15;41.75;99496.94;12253754;19;20010;-83
2023/06/09 10:36:58;;;;;;;4.50;3.65;;;;;;;28.05;40.37;99475.72;12242690;19;20018;-84
2023/06/09 10:41:13;;;;;;;4.97;3.67;;;;;;;28.39;41.86;99478.75;12254523;19;20026;-86
2023/06/09 10:45:18;;;;;;;5.18;4.10;;;;;;;28.53;40.54;99484.72;12242351;19;20010;-79
2023/06/09 10:49:27;;;;;;;4.40;3.97;;;;;;;28.64;39.56;99476.38;12247917;19;20364;-85
2023/06/09 10:53:29;;;;;;;9.05;4.20;;;;;;;28.78;39.82;99481.47;12248106;19;20034;-85
2023/06/09 10:57:37;;;;;;;4.35;3.90;;;;;;;28.89;38.66;99471.13;12245018;19;20002;-86
2023/06/09 11:01:59;;;;;;;5.57;4.10;;;;;;;29.16;36.87;99462.63;12252260;19;20018;-85
2023/06/09 11:06:01;;;;;;;6.22;4.47;;;;;;;29.29;38.15;99461.97;12247006;19;20017;-82
2023/06/09 11:10:03;;;;;;;5.35;4.25;;;;;;;29.57;36.29;99465.56;12247218;19;20037;-83
2023/06/09 11:14:05;;;;;;;5.53;4.20;;;;;;;29.74;37.18;99465.00;12241602;19;20054;-81
2023/06/09 11:18:17;;;;;;;5.63;4.25;;;;;;;29.67;34.51;99453.59;12255593;19;20019;-86
2023/06/09 11:22:19;;;;;;;4.68;4.13;;;;;;;29.81;35.25;99450.91;12253514;19;20047;-86
2023/06/09 11:26:24;;;;;;;6.53;4.38;;;;;;;30.08;36.23;99450.78;12246801;19;20010;-82
2023/06/09 11:30:32;;;;;;;6.60;4.55;;;;;;;30.38;35.07;99447.84;12243435;19;20020;-80
2023/06/09 11:34:55;;;;;;;6.57;4.53;;;;;;;30.54;35.07;99434.16;12243978;19;20082;-80
2023/06/09 11:39:04;;;;;;;5.95;4.43;;;;;;;30.75;32.99;99435.53;12257700;19;20010;-84
2023/06/09 11:43:07;;;;;;;5.80;4.50;;;;;;;30.86;33.36;99434.44;12249439;19;20010;-82
2023/06/09 11:47:25;;;;;;;6.18;4.40;;;;;;;30.98;33.17;99430.44;12242667;19;20022;-83
2023/06/09 11:51:52;;;;;;;5.90;4.57;;;;;;;31.08;33.86;99428.88;12249761;19;20669;-83
2023/06/09 11:56:06;;;;;;;6.93;4.63;;;;;;;31.34;32.16;99427.78;12245658;19;20006;-81
2023/06/09 12:00:12;;;;;;;5.72;4.43;;;;;;;31.51;32.92;99429.13;12248744;19;20028;-80
2023/06/09 12:04:15;;;;;;;5.78;5.15;;;;;;;31.57;32.81;99418.97;12244202;19;20026;-85
2023/06/09 12:08:18;;;;;;;6.93;5.18;;;;;;;31.67;32.38;99414.53;12250274;19;20007;-79
2023/06/09 12:12:20;;;;;;;6.07;5.00;;;;;;;31.84;32.24;99419.47;12241084;19;20349;-80
2023/06/09 12:16:23;;;;;;;7.22;4.57;;;;;;;32.42;30.90;99414.66;12243217;19;19999;-81
2023/06/09 12:20:28;;;;;;;5.55;4.95;;;;;;;33.21;29.31;99411.75;12247693;19;20650;-82
2023/06/09 12:24:31;;;;;;;7.07;5.45;;;;;;;33.75;28.89;99406.63;12248546;19;20010;-80
2023/06/09 12:28:34;;;;;;;6.25;5.32;;;;;;;34.38;27.52;99395.97;12248664;19;20464;-81
2023/06/09 12:32:37;;;;;;;7.78;5.13;;;;;;;34.91;26.43;99393.88;12246685;19;20023;-82
2023/06/09 12:36:39;;;;;;;6.18;5.28;;;;;;;34.66;28.11;99394.94;12246393;19;20010;-83
2023/06/09 12:40:52;;;;;;;6.80;5.40;;;;;;;35.38;26.38;99372.06;12246272;19;20006;-80
2023/06/09 12:44:57;;;;;;;6.72;5.63;;;;;;;36.00;26.90;99377.78;12242896;19;20017;-83
2023/06/09 12:49:05;;;;;;;6.07;5.47;;;;;;;36.59;25.10;99380.13;12245654;19;20483;-81
2023/06/09 12:53:09;;;;;;;5.90;5.30;;;;;;;37.58;24.10;99372.84;12251283;19;20723;-81
2023/06/09 12:57:11;;;;;;;8.05;5.78;;;;;;;38.37;23.33;99357.38;12257164;19;20017;-83
2023/06/09 13:01:14;;;;;;;5.50;5.00;;;;;;;39.00;22.44;99364.81;12252198;19;20010;-81
2023/06/09 13:05:17;;;;;;;6.70;6.10;;;;;;;38.80;21.79;99358.34;12248704;19;20440;-84
2023/06/09 13:09:20;;;;;;;7.53;5.80;;;;;;;39.16;21.47;99356.09;12250152;19;20002;-82
2023/06/09 13:13:21;;;;;;;6.70;5.82;;;;;;;38.56;21.83;99349.13;12243046;19;20056;-80
2023/06/09 13:17:24;;;;;;;6.20;5.70;;;;;;;38.89;22.16;99356.47;12242482;19;20013;-82
2023/06/09 13:21:29;;;;;;;7.22;6.03;;;;;;;39.69;21.30;99347.13;12247136;19;20018;-83
2023/06/09 13:25:47;;;;;;;6.65;5.28;;;;;;;40.59;20.75;99349.94;12241419;19;20010;-80
2023/06/09 13:29:49;;;;;;;8.20;5.20;;;;;;;40.77;18.70;99339.38;12249515;19;20329;-87
2023/06/09 13:33:51;;;;;;;5.88;5.30;;;;;;;40.71;19.70;99349.13;12241093;19;20023;-82
2023/06/09 13:37:56;;;;;;;7.35;5.53;;;;;;;41.26;19.15;99351.66;12240184;19;20368;-81
2023/06/09 13:41:57;;;;;;;7.70;5.25;;;;;;;41.79;18.93;99334.28;12244209;19;20205;-81
2023/06/09 13:46:00;;;;;;;7.10;5.05;;;;;;;41.96;17.88;99344.38;12235586;19;20011;-81
2023/06/09 13:50:02;;;;;;;7.63;5.32;;;;;;;42.29;17.61;99327.25;12240621;19;20464;-81
2023/06/09 13:54:04;;;;;;;6.03;4.90;;;;;;;42.68;17.75;99321.03;12243021;19;20014;-82
2023/06/09 13:58:06;;;;;;;5.10;4.60;;;;;;;43.22;16.79;99320.25;12240656;19;20010;-82
2023/06/09 14:02:07;;;;;;;6.18;4.65;;;;;;;43.49;16.60;99315.66;12241421;19;20006;-80
2023/06/09 14:06:10;;;;;;;4.50;3.88;;;;;;;43.68;16.15;99310.63;12238493;19;20006;-81
2023/06/09 14:10:13;;;;;;;4.82;4.38;;;;;;;43.90;15.38;99305.34;12238013;19;20007;-82
2023/06/09 14:14:16;;;;;;;5.22;4.72;;;;;;;44.16;15.65;99304.94;12235922;19;20407;-81
2023/06/09 14:18:18;;;;;;;5.50;4.85;;;;;;;43.94;15.97;99310.19;12236454;19;20007;-82
2023/06/09 14:22:20;;;;;;;8.20;5.50;;;;;;;44.47;15.23;99295.84;12239611;19;20030;-81
2023/06/09 14:26:22;;;;;;;4.50;4.05;;;;;;;44.21;15.13;99312.16;12236631;19;20026;-82
2023/06/09 14:30:26;;;;;;;4.97;4.47;;;;;;;44.28;15.06;99294.38;12238718;19;20014;-82
2023/06/09 14:34:29;;;;;;;6.82;4.63;;;;;;;43.71;15.43;99291.44;12236870;19;20022;-81
2023/06/09 14:38:31;;;;;;;6.63;4.85;;;;;;;43.47;15.54;99290.06;12236723;19;20022;-83
2023/06/09 14:42:33;;;;;;;5.15;4.60;;;;;;;43.51;15.19;99286.97;12239290;19;20007;-81
2023/06/09 14:46:35;;;;;;;6.10;4.93;;;;;;;43.91;14.89;99285.88;12248165;19;20031;-85
2023/06/09 14:50:39;;;;;;;5.50;4.30;;;;;;;44.26;14.51;99283.22;12247222;19;20010;-82
2023/06/09 14:54:43;;;;;;;5.60;5.00;;;;;;;44.29;14.68;99279.34;12249246;19;20011;-80
2023/06/09 14:58:45;;;;;;;9.57;4.65;;;;;;;42.93;15.40;99282.28;12251637;19;20010;-80
2023/06/09 15:02:50;;;;;;;7.03;5.00;;;;;;;41.21;16.19;99281.63;12253554;19;20010;-81
2023/06/09 15:06:52;;;;;;;5.60;5.10;;;;;;;41.27;16.90;99278.13;12243791;19;20082;-80
2023/06/09 15:10:54;;;;;;;6.35;5.75;;;;;;;41.40;16.77;99270.16;12249147;19;20019;-81
2023/06/09 15:14:56;;;;;;;7.85;5.75;;;;;;;42.13;16.55;99265.97;12243606;19;20011;-82
2023/06/09 15:19:02;;;;;;;5.70;4.70;;;;;;;42.66;15.72;99256.97;12241832;19;20006;-82
2023/06/09 15:23:05;;;;;;;6.88;5.22;;;;;;;40.41;17.19;99263.97;12250025;19;20015;-82
2023/06/09 15:27:07;;;;;;;7.45;6.00;;;;;;;38.17;18.80;99265.44;12247389;19;20027;-81
2023/06/09 15:31:09;;;;;;;7.20;5.57;;;;;;;36.26;20.16;99272.88;12248244;19;20011;-82
2023/06/09 15:35:12;;;;;;;7.32;5.88;;;;;;;34.67;21.91;99270.66;12242832;19;20019;-81
2023/06/09 15:39:14;;;;;;;6.95;6.25;;;;;;;33.60;23.17;99268.75;12249229;19;20011;-81
2023/06/09 15:43:18;;;;;;;7.50;6.80;;;;;;;32.89;24.07;99261.38;12246181;19;20034;-81
2023/06/09 15:47:20;;;;;;;11.55;6.03;;;;;;;32.47;24.77;99265.19;12244467;19;20476;-80
2023/06/09 15:51:22;;;;;;;7.13;6.43;;;;;;;32.38;25.21;99254.19;12246880;19;20014;-82
2023/06/09 15:55:24;;;;;;;6.47;5.70;;;;;;;32.34;25.02;99264.78;12242225;19;20018;-80
2023/06/09 15:59:27;;;;;;;9.95;6.82;;;;;;;32.33;25.07;99251.75;12246361;19;20018;-81
2023/06/09 16:03:29;;;;;;;8.73;6.32;;;;;;;31.98;26.53;99270.53;12244416;19;20006;-82
2023/06/09 16:07:32;;;;;;;9.00;6.13;;;;;;;31.38;27.99;99268.41;12244338;19;20014;-79
2023/06/09 16:11:34;;;;;;;8.98;6.10;;;;;;;30.79;28.62;99271.47;12244787;19;20027;-80
2023/06/09 16:15:38;;;;;;;7.55;5.93;;;;;;;30.53;29.48;99266.84;12242026;19;20035;-79
2023/06/09 16:19:39;;;;;;;6.93;6.15;;;;;;;30.27;29.96;99271.53;12238598;19;20011;-79
2023/06/09 16:23:41;;;;;;;8.98;6.35;;;;;;;30.10;30.22;99275.88;12243322;19;20014;-81
2023/06/09 16:27:43;;;;;;;;;;;;;;;29.78;31.17;99275.63;12245560;19;20014;-79
2023/06/09 16:31:47;;;;;;;6.70;6.00;;;;;;;29.51;31.05;99267.25;12244445;19;19914;-81
2023/06/09 16:35:48;;;;;;;6.90;5.80;;;;;;;29.15;31.50;99277.41;12243508;19;20003;-81
2023/06/09 16:39:50;;;;;;;7.28;5.80;;;;;;;28.89;31.68;99275.44;12243225;19;20010;-80
2023/06/09 16:43:52;;;;;;;7.50;5.88;;;;;;;28.58;32.08;99271.78;12242716;19;20417;-80
2023/06/09 16:47:55;;;;;;;10.02;6.47;;;;;;;28.36;32.02;99269.84;12243121;19;20011;-81
2023/06/09 16:51:58;;;;;;;7.85;6.15;;;;;;;28.18;32.08;99273.22;12243975;19;20036;-81
2023/06/09 16:56:00;;;;;;;9.18;6.22;;;;;;;28.11;32.83;99275.97;12240670;19;20448;-81
2023/06/09 17:00:03;;;;;;;8.90;5.97;;;;;;;28.06;32.68;99270.59;12244086;19;20482;-81
2023/06/09 17:04:07;;;;;;;7.43;6.18;;;;;;;28.15;32.59;99276.81;12239271;19;20019;-81
2023/06/09 17:08:09;;;;;;;6.57;5.78;;;;;;;28.36;32.85;99272.66;12244089;19;20015;-82
2023/06/09 17:12:11;;;;;;;6.97;6.07;;;;;;;28.46;33.21;99280.53;12244646;19;20426;-83
2023/06/09 17:16:13;;;;;;;9.52;5.47;;;;;;;28.58;33.11;99283.13;12243438;19;20354;-84
2023/06/09 17:20:15;;;;;;;7.75;6.18;;;;;;;28.50;33.49;99284.25;12239014;19;20447;-83
2023/06/09 17:24:17;;;;;;;7.60;5.63;;;;;;;28.38;33.83;99290.94;12242657;19;20033;-82
2023/06/09 17:28:19;;;;;;;;;;;;;;;28.17;33.85;99294.25;12243435;19;20037;-82
2023/06/09 17:32:21;;;;;;;7.63;6.23;;;;;;;28.05;34.52;99294.47;12240622;19;19921;-83
2023/06/09 17:36:24;;;;;;;8.32;5.57;;;;;;;27.97;34.67;99295.53;12240763;19;20006;-82
2023/06/09 17:40:26;;;;;;;8.43;6.15;;;;;;;27.83;34.59;99300.97;12243074;19;20011;-83
2023/06/09 17:44:29;;;;;;;7.80;6.20;;;;;;;27.63;35.65;99297.34;12240300;19;20035;-82
2023/06/09 17:48:31;;;;;;;10.30;5.68;;;;;;;27.47;35.84;99295.47;12244309;19;20344;-83
2023/06/09 17:52:35;;;;;;;7.65;6.82;;;;;;;27.39;36.76;99299.34;12240678;19;20010;-83
2023/06/09 17:56:38;;;;;;;8.02;6.53;;;;;;;27.29;36.99;99299.16;12240885;19;20014;-83
2023/06/09 18:00:40;;;;;;;8.07;5.90;;;;;;;27.14;37.85;99307.31;12240109;19;20010;-83
2023/06/09 18:04:41;;;;;;;8.68;6.50;;;;;;;26.98;38.53;99300.91;12241335;19;20033;-83
2023/06/09 18:08:43;;;;;;;;;;;;;;;26.67;38.87;99301.88;12240488;19;20014;-83
2023/06/09 18:12:46;;;;;;;8.48;6.13;;;;;;;26.34;40.46;99295.47;12241437;19;19914;-82
2023/06/09 18:16:48;;;;;;;9.70;5.72;;;;;;;26.02;42.03;99305.19;12235530;19;20066;-81
2023/06/09 18:20:50;;;;;;;9.48;6.70;;;;;;;25.69;43.23;99303.53;12235843;19;20338;-81
2023/06/09 18:24:52;;;;;;;8.40;6.88;;;;;;;25.42;44.25;99303.22;12235440;19;20019;-81
2023/06/09 18:28:54;;;;;;;7.97;6.45;;;;;;;25.27;45.26;99312.50;12238100;19;20010;-80
2023/06/09 18:32:56;;;;;;;9.05;6.75;;;;;;;25.17;46.03;99307.38;12236001;19;20110;-82
2023/06/09 18:36:57;;;;;;;8.45;6.57;;;;;;;25.03;45.41;99310.56;12235203;19;20011;-81
2023/06/09 18:41:00;;;;;;;9.38;6.32;;;;;;;24.91;46.86;99311.44;12246754;19;20006;-82
2023/06/09 18:45:04;;;;;;;9.63;5.93;;;;;;;24.76;47.71;99312.22;12248937;19;20030;-81